createdAt,value
2023-02-21T00:00:34.918Z,0.00
2023-02-21T00:01:34.873Z,0.00
2023-02-21T00:02:34.825Z,0.00
2023-02-21T00:03:34.813Z,0.00
2023-02-21T00:04:34.736Z,0.00
2023-02-21T00:05:34.692Z,0.00
2023-02-21T00:06:34.632Z,0.00
2023-02-21T00:07:34.591Z,0.00
2023-02-21T00:08:34.537Z,0.00
2023-02-21T00:09:34.517Z,0.00
2023-02-21T00:10:34.448Z,0.00
2023-02-21T00:11:34.394Z,0.00
2023-02-21T00:12:34.346Z,0.00
2023-02-21T00:13:34.337Z,0.00
2023-02-21T00:14:34.257Z,0.00
2023-02-21T00:15:34.208Z,0.00
2023-02-21T00:16:34.258Z,0.00
2023-02-21T00:17:34.112Z,0.00
2023-02-21T00:18:34.063Z,0.00
2023-02-21T00:19:34.035Z,0.00
2023-02-21T00:20:33.971Z,0.00
2023-02-21T00:21:33.924Z,0.00
2023-02-21T00:22:33.875Z,0.00
2023-02-21T00:23:33.826Z,0.00
2023-02-21T00:24:33.778Z,0.00
2023-02-21T00:25:33.754Z,0.00
2023-02-21T00:26:33.688Z,0.00
2023-02-21T00:27:33.639Z,0.00
2023-02-21T00:28:33.589Z,0.00
2023-02-21T00:29:33.542Z,0.00
2023-02-21T00:30:33.584Z,0.00
2023-02-21T00:31:33.494Z,0.00
2023-02-21T00:32:33.452Z,0.00
2023-02-21T00:33:33.373Z,0.00
2023-02-21T00:34:33.296Z,0.00
2023-02-21T00:35:33.314Z,0.00
2023-02-21T00:36:33.205Z,0.00
2023-02-21T00:37:33.155Z,0.00
2023-02-21T00:38:33.107Z,0.00
2023-02-21T00:39:33.059Z,0.00
2023-02-21T00:40:33.011Z,0.00
2023-02-21T00:41:32.997Z,0.00
2023-02-21T00:42:32.916Z,0.00
2023-02-21T00:43:33.766Z,0.00
2023-02-21T00:44:32.838Z,0.00
2023-02-21T00:45:32.782Z,0.00
2023-02-21T00:46:32.726Z,0.00
2023-02-21T00:47:32.679Z,0.00
2023-02-21T00:48:32.634Z,0.00
2023-02-21T00:49:32.588Z,0.00
2023-02-21T00:50:32.556Z,0.00
2023-02-21T00:51:32.489Z,0.00
2023-02-21T00:52:32.447Z,0.00
2023-02-21T00:53:32.396Z,0.00
2023-02-21T00:54:32.338Z,0.00
2023-02-21T00:55:32.299Z,0.00
2023-02-21T00:56:32.272Z,0.00
2023-02-21T00:57:32.213Z,0.00
2023-02-21T00:58:32.153Z,0.00
2023-02-21T00:59:32.106Z,0.00
2023-02-21T01:00:32.071Z,0.00
2023-02-21T01:01:32.036Z,0.00
2023-02-21T01:02:31.986Z,0.00
2023-02-21T01:03:31.913Z,0.00
2023-02-21T01:04:31.887Z,0.00
2023-02-21T01:05:31.828Z,0.00
2023-02-21T01:06:31.775Z,0.00
2023-02-21T01:07:31.734Z,0.00
2023-02-21T01:08:31.724Z,0.00
2023-02-21T01:09:31.632Z,0.00
2023-02-21T01:10:31.588Z,0.00
2023-02-21T01:11:31.545Z,0.00
2023-02-21T01:12:31.489Z,0.00
2023-02-21T01:13:31.447Z,0.00
2023-02-21T01:14:31.427Z,0.00
2023-02-21T01:15:31.369Z,0.00
2023-02-21T01:16:31.317Z,0.00
2023-02-21T01:17:31.252Z,0.00
2023-02-21T01:18:31.204Z,0.00
2023-02-21T01:19:31.164Z,0.00
2023-02-21T01:20:31.111Z,0.00
2023-02-21T01:21:31.072Z,0.00
2023-02-21T01:22:31.016Z,0.00
2023-02-21T01:23:30.968Z,0.00
2023-02-21T01:24:30.921Z,0.00
2023-02-21T01:25:30.872Z,0.00
2023-02-21T01:26:30.846Z,0.00
2023-02-21T01:27:30.776Z,0.00
2023-02-21T01:28:38.814Z,0.00
2023-02-21T01:29:30.786Z,0.00
2023-02-21T01:30:30.670Z,0.00
2023-02-21T01:31:30.618Z,0.00
2023-02-21T01:32:30.628Z,0.00
2023-02-21T01:33:30.610Z,0.00
2023-02-21T01:34:30.442Z,0.00
2023-02-21T01:35:30.687Z,0.00
2023-02-21T01:36:30.346Z,0.00
2023-02-21T01:37:30.300Z,0.00
2023-02-21T01:38:30.492Z,0.00
2023-02-21T01:39:30.251Z,0.00
2023-02-21T01:40:30.161Z,0.00
2023-02-21T01:41:30.167Z,0.00
2023-02-21T01:42:30.070Z,0.00
2023-02-21T01:43:30.014Z,0.00
2023-02-21T01:44:30.000Z,0.00
2023-02-21T01:45:30.190Z,0.00
2023-02-21T01:46:29.994Z,0.00
2023-02-21T01:47:29.999Z,0.00
2023-02-21T01:48:29.772Z,0.00
2023-02-21T01:49:29.729Z,0.00
2023-02-21T01:50:29.873Z,0.00
2023-02-21T01:51:30.874Z,0.00
2023-02-21T01:52:29.580Z,0.00
2023-02-21T01:53:29.842Z,0.00
2023-02-21T01:54:29.518Z,0.00
2023-02-21T01:55:29.454Z,0.00
2023-02-21T01:56:29.410Z,0.00
2023-02-21T01:57:29.473Z,0.00
2023-02-21T01:58:29.305Z,0.00
2023-02-21T01:59:29.264Z,0.00
2023-02-21T02:00:29.207Z,0.00
2023-02-21T02:01:29.177Z,0.00
2023-02-21T02:02:29.348Z,0.00
2023-02-21T02:03:29.304Z,0.00
2023-02-21T02:04:29.023Z,0.00
2023-02-21T02:05:29.110Z,0.00
2023-02-21T02:06:28.916Z,0.00
2023-02-21T02:07:28.865Z,0.00
2023-02-21T02:08:28.873Z,0.00
2023-02-21T02:09:29.038Z,0.00
2023-02-21T02:10:28.738Z,0.00
2023-02-21T02:11:28.842Z,0.00
2023-02-21T02:12:28.624Z,0.00
2023-02-21T02:13:28.860Z,0.00
2023-02-21T02:14:28.716Z,0.00
2023-02-21T02:15:28.665Z,0.00
2023-02-21T02:16:28.431Z,0.00
2023-02-21T02:17:28.680Z,0.00
2023-02-21T02:18:28.333Z,0.00
2023-02-21T02:19:28.553Z,0.00
2023-02-21T02:20:28.279Z,0.00
2023-02-21T02:21:28.505Z,0.00
2023-02-21T02:22:28.145Z,0.00
2023-02-21T02:23:28.316Z,0.00
2023-02-21T02:24:28.055Z,0.00
2023-02-21T02:25:28.029Z,0.00
2023-02-21T02:26:28.184Z,0.00
2023-02-21T02:27:28.140Z,0.00
2023-02-21T02:28:27.859Z,0.00
2023-02-21T02:29:27.950Z,0.00
2023-02-21T02:30:27.810Z,0.00
2023-02-21T02:31:28.047Z,0.00
2023-02-21T02:32:27.683Z,0.00
2023-02-21T02:33:27.983Z,0.00
2023-02-21T02:34:27.566Z,0.00
2023-02-21T02:35:27.791Z,0.00
2023-02-21T02:36:27.474Z,0.00
2023-02-21T02:37:27.606Z,0.00
2023-02-21T02:38:27.421Z,0.00
2023-02-21T02:39:27.414Z,0.00
2023-02-21T02:40:27.280Z,0.00
2023-02-21T02:41:27.421Z,0.00
2023-02-21T02:42:27.184Z,0.00
2023-02-21T02:43:27.443Z,0.00
2023-02-21T02:44:27.088Z,0.00
2023-02-21T02:45:27.487Z,0.00
2023-02-21T02:46:27.093Z,0.00
2023-02-21T02:47:27.061Z,0.00
2023-02-21T02:48:26.896Z,0.00
2023-02-21T02:49:27.080Z,0.00
2023-02-21T02:50:27.055Z,0.00
2023-02-21T02:51:26.815Z,0.00
2023-02-21T02:52:26.698Z,0.00
2023-02-21T02:53:27.813Z,0.00
2023-02-21T02:54:26.599Z,0.00
2023-02-21T02:55:26.838Z,0.00
2023-02-21T02:56:26.531Z,0.00
2023-02-21T02:57:26.617Z,0.00
2023-02-21T02:58:26.407Z,0.00
2023-02-21T02:59:26.667Z,0.00
2023-02-21T03:00:26.318Z,0.00
2023-02-21T03:01:27.487Z,0.00
2023-02-21T03:02:26.497Z,0.00
2023-02-21T03:03:26.318Z,0.00
2023-02-21T03:04:26.162Z,0.00
2023-02-21T03:05:26.266Z,0.00
2023-02-21T03:06:26.016Z,0.00
2023-02-21T03:07:25.970Z,0.00
2023-02-21T03:08:25.959Z,0.00
2023-02-21T03:09:26.014Z,0.00
2023-02-21T03:10:25.827Z,0.00
2023-02-21T03:11:26.001Z,0.00
2023-02-21T03:12:25.728Z,0.00
2023-02-21T03:13:25.689Z,0.00
2023-02-21T03:14:25.919Z,0.00
2023-02-21T03:15:25.589Z,0.00
2023-02-21T03:16:25.682Z,0.00
2023-02-21T03:17:25.516Z,0.00
2023-02-21T03:18:25.654Z,0.00
2023-02-21T03:19:25.448Z,0.00
2023-02-21T03:20:25.468Z,0.00
2023-02-21T03:21:25.335Z,0.00
2023-02-21T03:22:25.470Z,0.00
2023-02-21T03:23:25.217Z,0.00
2023-02-21T03:24:25.293Z,0.00
2023-02-21T03:25:25.107Z,0.00
2023-02-21T03:26:25.192Z,0.00
2023-02-21T03:27:25.016Z,0.00
2023-02-21T03:28:25.142Z,0.00
2023-02-21T03:29:24.909Z,0.00
2023-02-21T03:30:24.944Z,0.00
2023-02-21T03:31:24.838Z,0.00
2023-02-21T03:32:24.929Z,0.00
2023-02-21T03:33:24.724Z,0.00
2023-02-21T03:34:24.752Z,0.00
2023-02-21T03:35:24.793Z,0.00
2023-02-21T03:36:24.577Z,0.00
2023-02-21T03:37:24.555Z,0.00
2023-02-21T03:38:24.559Z,0.00
2023-02-21T03:39:24.430Z,0.00
2023-02-21T03:40:24.579Z,0.00
2023-02-21T03:41:24.358Z,0.00
2023-02-21T03:42:24.292Z,0.00
2023-02-21T03:43:24.442Z,0.00
2023-02-21T03:44:24.400Z,0.00
2023-02-21T03:45:24.158Z,0.00
2023-02-21T03:46:24.121Z,0.00
2023-02-21T03:47:24.070Z,0.00
2023-02-21T03:48:31.733Z,0.00
2023-02-21T03:49:23.948Z,0.00
2023-02-21T03:50:23.931Z,0.00
2023-02-21T03:51:23.882Z,0.00
2023-02-21T03:52:24.048Z,0.00
2023-02-21T03:53:23.767Z,0.00
2023-02-21T03:54:23.761Z,0.00
2023-02-21T03:55:23.674Z,0.00
2023-02-21T03:56:30.538Z,0.00
2023-02-21T03:57:23.570Z,0.00
2023-02-21T03:58:23.589Z,0.00
2023-02-21T03:59:23.488Z,0.00
2023-02-21T04:00:23.604Z,0.00
2023-02-21T04:01:23.457Z,0.00
2023-02-21T04:02:23.588Z,0.00
2023-02-21T04:03:23.279Z,0.00
2023-02-21T04:04:23.430Z,0.00
2023-02-21T04:05:23.202Z,0.00
2023-02-21T04:06:23.170Z,0.00
2023-02-21T04:07:23.146Z,0.00
2023-02-21T04:08:23.037Z,0.00
2023-02-21T04:09:23.056Z,0.00
2023-02-21T04:10:23.142Z,0.00
2023-02-21T04:11:22.901Z,0.00
2023-02-21T04:12:22.878Z,0.00
2023-02-21T04:13:22.805Z,0.00
2023-02-21T04:14:22.896Z,0.00
2023-02-21T04:15:22.786Z,0.00
2023-02-21T04:16:22.756Z,0.00
2023-02-21T04:17:22.749Z,0.00
2023-02-21T04:18:22.715Z,0.00
2023-02-21T04:19:22.514Z,0.00
2023-02-21T04:20:22.516Z,0.00
2023-02-21T04:21:22.409Z,0.00
2023-02-21T04:22:22.392Z,0.00
2023-02-21T04:23:22.354Z,0.00
2023-02-21T04:24:22.501Z,0.00
2023-02-21T04:25:22.222Z,0.00
2023-02-21T04:26:22.258Z,0.00
2023-02-21T04:27:22.133Z,0.00
2023-02-21T04:28:22.097Z,0.00
2023-02-21T04:29:22.276Z,0.00
2023-02-21T04:30:22.025Z,0.00
2023-02-21T04:31:22.152Z,0.00
2023-02-21T04:32:21.960Z,0.00
2023-02-21T04:33:21.898Z,0.00
2023-02-21T04:34:21.788Z,0.00
2023-02-21T04:35:21.926Z,0.00
2023-02-21T04:36:21.702Z,0.00
2023-02-21T04:37:21.738Z,0.00
2023-02-21T04:38:21.599Z,0.00
2023-02-21T04:39:21.582Z,0.00
2023-02-21T04:40:21.517Z,0.00
2023-02-21T04:41:21.486Z,0.00
2023-02-21T04:42:21.558Z,0.00
2023-02-21T04:43:21.364Z,0.00
2023-02-21T04:44:21.381Z,0.00
2023-02-21T04:45:21.382Z,0.00
2023-02-21T04:46:21.213Z,0.00
2023-02-21T04:47:21.385Z,0.00
2023-02-21T04:48:21.112Z,0.00
2023-02-21T04:49:21.197Z,0.00
2023-02-21T04:50:21.060Z,0.00
2023-02-21T04:51:21.315Z,0.00
2023-02-21T04:52:20.922Z,0.00
2023-02-21T04:53:21.034Z,0.00
2023-02-21T04:54:20.827Z,0.00
2023-02-21T04:55:22.064Z,0.00
2023-02-21T04:56:20.863Z,0.00
2023-02-21T04:57:20.681Z,0.00
2023-02-21T04:58:20.856Z,0.00
2023-02-21T04:59:20.583Z,0.00
2023-02-21T05:00:20.663Z,0.00
2023-02-21T05:01:20.543Z,0.00
2023-02-21T05:02:20.686Z,0.00
2023-02-21T05:03:20.394Z,0.00
2023-02-21T05:04:20.510Z,0.00
2023-02-21T05:05:20.314Z,0.00
2023-02-21T05:06:20.542Z,0.00
2023-02-21T05:07:20.195Z,0.00
2023-02-21T05:08:20.150Z,0.00
2023-02-21T05:09:20.096Z,0.00
2023-02-21T05:10:20.122Z,0.00
2023-02-21T05:11:20.043Z,0.00
2023-02-21T05:12:20.136Z,0.00
2023-02-21T05:13:19.909Z,0.00
2023-02-21T05:14:19.862Z,0.00
2023-02-21T05:15:19.817Z,0.00
2023-02-21T05:16:20.089Z,0.00
2023-02-21T05:17:19.706Z,0.00
2023-02-21T05:18:19.767Z,0.00
2023-02-21T05:19:19.612Z,0.00
2023-02-21T05:20:19.569Z,0.00
2023-02-21T05:21:19.591Z,0.00
2023-02-21T05:22:19.494Z,0.00
2023-02-21T05:23:19.616Z,0.00
2023-02-21T05:24:19.372Z,0.00
2023-02-21T05:25:19.416Z,0.00
2023-02-21T05:26:19.282Z,0.00
2023-02-21T05:27:19.430Z,0.00
2023-02-21T05:28:19.292Z,0.00
2023-02-21T05:29:19.250Z,0.00
2023-02-21T05:30:19.140Z,0.00
2023-02-21T05:31:19.483Z,0.00
2023-02-21T05:32:19.016Z,0.00
2023-02-21T05:33:19.080Z,0.00
2023-02-21T05:34:18.891Z,0.00
2023-02-21T05:35:19.283Z,0.00
2023-02-21T05:36:18.969Z,0.00
2023-02-21T05:37:18.772Z,0.00
2023-02-21T05:38:18.912Z,0.00
2023-02-21T05:39:18.781Z,0.00
2023-02-21T05:40:18.715Z,0.00
2023-02-21T05:41:18.579Z,0.00
2023-02-21T05:42:18.722Z,0.00
2023-02-21T05:43:18.489Z,0.00
2023-02-21T05:44:18.534Z,0.00
2023-02-21T05:45:18.377Z,0.00
2023-02-21T05:46:18.563Z,0.00
2023-02-21T05:47:18.396Z,0.00
2023-02-21T05:48:18.219Z,0.00
2023-02-21T05:49:18.178Z,0.00
2023-02-21T05:50:18.398Z,0.00
2023-02-21T05:51:18.065Z,0.00
2023-02-21T05:52:18.387Z,0.00
2023-02-21T05:53:17.982Z,0.00
2023-02-21T05:54:17.926Z,4.00
2023-02-21T05:55:17.992Z,4.00
2023-02-21T05:56:17.823Z,4.00
2023-02-21T05:57:18.008Z,4.00
2023-02-21T05:58:17.861Z,4.00
2023-02-21T05:59:17.818Z,8.00
2023-02-21T06:03:47.416Z,16.00
2023-02-21T06:04:46.938Z,20.00
2023-02-21T06:05:46.902Z,24.00
2023-02-21T06:06:46.841Z,28.00
2023-02-21T06:07:46.969Z,32.00
2023-02-21T06:08:46.741Z,40.00
2023-02-21T06:09:46.765Z,48.00
2023-02-21T06:10:48.372Z,56.00
2023-02-21T06:11:46.583Z,72.00
2023-02-21T06:12:46.794Z,84.00
2023-02-21T06:13:46.505Z,100.00
2023-02-21T06:14:46.608Z,112.00
2023-02-21T06:15:46.584Z,128.00
2023-02-21T06:16:46.528Z,152.00
2023-02-21T06:17:46.301Z,172.00
2023-02-21T06:18:46.340Z,196.00
2023-02-21T06:19:46.198Z,224.00
2023-02-21T06:20:46.265Z,248.00
2023-02-21T06:21:46.147Z,280.00
2023-02-21T06:22:46.052Z,308.00
2023-02-21T06:23:46.015Z,344.00
2023-02-21T06:24:46.053Z,380.00
2023-02-21T06:25:45.912Z,416.00
2023-02-21T06:26:46.079Z,452.00
2023-02-21T06:27:45.923Z,484.00
2023-02-21T06:28:45.807Z,528.00
2023-02-21T06:29:45.716Z,560.00
2023-02-21T06:30:45.923Z,600.00
2023-02-21T06:31:45.648Z,636.00
2023-02-21T06:32:45.810Z,672.00
2023-02-21T06:33:45.516Z,712.00
2023-02-21T06:34:45.571Z,748.00
2023-02-21T06:35:45.528Z,784.00
2023-02-21T06:36:45.385Z,820.00
2023-02-21T06:37:45.454Z,852.00
2023-02-21T06:38:45.289Z,888.00
2023-02-21T06:39:45.453Z,920.00
2023-02-21T06:40:45.192Z,956.00
2023-02-21T06:42:08.223Z,992.00
2023-02-21T06:42:45.079Z,1024.00
2023-02-21T06:43:45.035Z,1056.00
2023-02-21T06:44:45.090Z,1080.00
2023-02-21T06:45:45.092Z,1100.00
2023-02-21T06:46:44.953Z,1132.00
2023-02-21T06:47:45.110Z,1172.00
2023-02-21T06:48:44.791Z,1208.00
2023-02-21T06:49:44.918Z,1240.00
2023-02-21T06:50:44.741Z,1276.00
2023-02-21T06:51:44.658Z,1320.00
2023-02-21T06:52:44.638Z,1368.00
2023-02-21T06:53:44.780Z,1416.00
2023-02-21T06:54:44.563Z,1460.00
2023-02-21T06:55:45.579Z,1500.00
2023-02-21T06:56:44.405Z,1556.00
2023-02-21T06:57:44.352Z,1628.00
2023-02-21T06:58:45.598Z,1704.00
2023-02-21T06:59:44.290Z,1796.00
2023-02-21T07:00:51.143Z,1892.00
2023-02-21T07:01:44.212Z,1992.00
2023-02-21T07:02:44.107Z,2084.00
2023-02-21T07:03:44.095Z,2164.00
2023-02-21T07:04:45.322Z,2244.00
2023-02-21T07:05:43.962Z,2308.00
2023-02-21T07:06:45.060Z,2364.00
2023-02-21T07:07:43.871Z,2400.00
2023-02-21T07:08:45.109Z,2416.00
2023-02-21T07:09:43.765Z,2436.00
2023-02-21T07:10:43.839Z,2480.00
2023-02-21T07:11:43.678Z,2492.00
2023-02-21T07:12:43.857Z,2528.00
2023-02-21T07:13:43.569Z,2580.00
2023-02-21T07:14:43.535Z,2628.00
2023-02-21T07:15:43.644Z,2660.00
2023-02-21T07:16:43.590Z,2752.00
2023-02-21T07:17:43.377Z,2824.00
2023-02-21T07:18:43.589Z,2848.00
2023-02-21T07:19:43.291Z,2880.00
2023-02-21T07:20:43.236Z,2964.00
2023-02-21T07:21:43.214Z,3100.00
2023-02-21T07:22:45.265Z,3240.00
2023-02-21T07:23:43.095Z,3316.00
2023-02-21T07:24:43.125Z,3364.00
2023-02-21T07:25:42.990Z,3424.00
2023-02-21T07:26:42.959Z,3496.00
2023-02-21T07:27:43.100Z,3556.00
2023-02-21T07:28:43.046Z,3592.00
2023-02-21T07:29:42.788Z,3628.00
2023-02-21T07:30:42.892Z,3672.00
2023-02-21T07:31:42.916Z,3704.00
2023-02-21T07:32:42.646Z,3748.00
2023-02-21T07:33:42.889Z,3756.00
2023-02-21T07:34:42.557Z,3772.00
2023-02-21T07:35:43.714Z,3792.00
2023-02-21T07:36:42.457Z,3832.00
2023-02-21T07:37:42.634Z,3900.00
2023-02-21T07:38:42.466Z,3984.00
2023-02-21T07:39:42.619Z,4012.00
2023-02-21T07:40:42.263Z,4044.00
2023-02-21T07:41:42.426Z,4128.00
2023-02-21T07:42:42.167Z,4172.00
2023-02-21T07:43:42.243Z,4212.00
2023-02-21T07:44:42.272Z,4264.00
2023-02-21T07:45:42.106Z,4280.00
2023-02-21T07:46:42.130Z,4288.00
2023-02-21T07:47:41.955Z,4320.00
2023-02-21T07:48:42.071Z,4368.00
2023-02-21T07:49:41.833Z,4376.00
2023-02-21T07:50:41.793Z,4404.00
2023-02-21T07:51:41.934Z,4464.00
2023-02-21T07:52:41.915Z,4488.00
2023-02-21T07:53:41.640Z,4520.00
2023-02-21T07:54:41.805Z,4556.00
2023-02-21T07:55:41.544Z,4580.00
2023-02-21T07:56:41.583Z,4580.00
2023-02-21T07:57:41.457Z,4600.00
2023-02-21T07:58:41.543Z,4652.00
2023-02-21T07:59:41.354Z,4688.00
2023-02-21T08:00:41.556Z,4708.00
2023-02-21T08:01:41.320Z,4740.00
2023-02-21T08:02:41.407Z,4780.00
2023-02-21T08:03:41.196Z,4808.00
2023-02-21T08:04:41.397Z,4836.00
2023-02-21T08:05:41.078Z,4856.00
2023-02-21T08:06:41.285Z,4860.00
2023-02-21T08:07:40.972Z,4888.00
2023-02-21T08:08:40.926Z,5092.00
2023-02-21T08:09:41.153Z,5172.00
2023-02-21T08:10:41.113Z,5204.00
2023-02-21T08:11:40.811Z,5248.00
2023-02-21T08:12:40.919Z,5280.00
2023-02-21T08:13:40.689Z,5324.00
2023-02-21T08:14:40.639Z,5344.00
2023-02-21T08:15:40.598Z,5364.00
2023-02-21T08:16:42.077Z,5392.00
2023-02-21T08:17:40.493Z,5424.00
2023-02-21T08:18:42.700Z,5452.00
2023-02-21T08:19:40.395Z,5468.00
2023-02-21T08:20:40.354Z,5492.00
2023-02-21T08:21:40.469Z,5496.00
2023-02-21T08:22:40.290Z,5516.00
2023-02-21T08:23:40.280Z,5552.00
2023-02-21T08:24:40.172Z,5584.00
2023-02-21T08:25:40.291Z,5612.00
2023-02-21T08:26:40.301Z,5636.00
2023-02-21T08:27:40.024Z,5656.00
2023-02-21T08:28:40.749Z,5676.00
2023-02-21T08:29:39.916Z,5692.00
2023-02-21T08:30:39.935Z,5716.00
2023-02-21T08:31:39.836Z,5736.00
2023-02-21T08:32:39.788Z,5756.00
2023-02-21T08:33:39.938Z,5792.00
2023-02-21T08:34:39.832Z,5812.00
2023-02-21T08:35:40.885Z,5852.00
2023-02-21T08:36:39.619Z,5876.00
2023-02-21T08:37:39.542Z,5900.00
2023-02-21T08:38:39.494Z,5924.00
2023-02-21T08:39:39.680Z,5952.00
2023-02-21T08:40:39.540Z,5992.00
2023-02-21T08:41:39.494Z,6024.00
2023-02-21T08:42:39.326Z,6044.00
2023-02-21T08:43:39.276Z,6084.00
2023-02-21T08:44:39.303Z,6120.00
2023-02-21T08:45:39.161Z,6148.00
2023-02-21T08:46:39.359Z,6176.00
2023-02-21T08:47:39.070Z,6212.00
2023-02-21T08:48:39.454Z,6224.00
2023-02-21T08:49:38.972Z,6244.00
2023-02-21T08:50:39.141Z,6268.00
2023-02-21T08:51:38.879Z,6304.00
2023-02-21T08:52:39.979Z,6332.00
2023-02-21T08:53:38.789Z,6340.00
2023-02-21T08:54:38.968Z,6364.00
2023-02-21T08:55:38.824Z,6432.00
2023-02-21T08:56:38.779Z,6476.00
2023-02-21T08:57:38.603Z,6492.00
2023-02-21T08:58:38.806Z,6536.00
2023-02-21T08:59:38.553Z,6584.00
2023-02-21T09:00:40.698Z,6640.00
2023-02-21T09:01:38.426Z,6684.00
2023-02-21T09:02:38.620Z,6720.00
2023-02-21T09:03:38.322Z,6772.00
2023-02-21T09:04:39.451Z,6828.00
2023-02-21T09:05:38.224Z,6876.00
2023-02-21T09:06:38.179Z,6924.00
2023-02-21T09:07:38.511Z,6964.00
2023-02-21T09:08:39.286Z,7004.00
2023-02-21T09:09:38.040Z,7068.00
2023-02-21T09:10:38.110Z,7128.00
2023-02-21T09:11:37.952Z,7188.00
2023-02-21T09:12:37.905Z,7248.00
2023-02-21T09:13:37.861Z,7312.00
2023-02-21T09:14:38.092Z,7384.00
2023-02-21T09:15:37.759Z,7452.00
2023-02-21T09:16:37.917Z,7532.00
2023-02-21T09:17:37.669Z,7600.00
2023-02-21T09:18:43.296Z,7684.00
2023-02-21T09:19:37.583Z,7776.00
2023-02-21T09:20:37.727Z,7892.00
2023-02-21T09:21:37.484Z,8012.00
2023-02-21T09:22:37.540Z,8208.00
2023-02-21T09:23:37.392Z,8496.00
2023-02-21T09:24:39.613Z,8884.00
2023-02-21T09:25:37.300Z,9428.00
2023-02-21T09:26:37.359Z,10144.00
2023-02-21T09:27:37.212Z,11012.00
2023-02-21T09:28:37.378Z,16592.00
2023-02-21T09:29:45.886Z,33696.00
2023-02-21T09:30:38.281Z,46976.00
2023-02-21T09:31:37.250Z,46432.00
2023-02-21T09:32:37.016Z,49024.00
2023-02-21T09:35:10.243Z,46944.00
2023-02-21T09:36:10.142Z,47104.00
2023-02-21T09:37:12.256Z,49888.00
2023-02-21T09:38:09.914Z,48416.00
2023-02-21T09:39:10.218Z,47424.00
2023-02-21T09:40:09.830Z,51232.00
2023-02-21T09:41:09.801Z,48256.00
2023-02-21T09:42:09.755Z,48832.00
2023-02-21T09:43:09.949Z,46880.00
2023-02-21T09:44:09.752Z,45184.00
2023-02-21T09:45:09.959Z,47168.00
2023-02-21T09:46:09.645Z,48256.00
2023-02-21T09:47:09.541Z,47744.00
2023-02-21T09:48:09.596Z,52224.00
2023-02-21T09:49:09.475Z,46304.00
2023-02-21T09:50:11.201Z,49408.00
2023-02-21T09:51:09.379Z,52224.00
2023-02-21T09:52:09.394Z,48832.00
2023-02-21T09:53:09.302Z,50688.00
2023-02-21T09:54:09.411Z,52096.00
2023-02-21T09:55:09.217Z,53248.00
2023-02-21T09:56:09.434Z,51232.00
2023-02-21T09:57:09.151Z,50976.00
2023-02-21T09:58:10.255Z,52864.00
2023-02-21T09:59:09.067Z,53952.00
2023-02-21T10:00:09.139Z,53184.00
2023-02-21T10:01:09.039Z,55712.00
2023-02-21T10:02:10.394Z,51456.00
2023-02-21T10:03:08.925Z,52544.00
2023-02-21T10:04:08.886Z,51200.00
2023-02-21T10:05:08.844Z,52768.00
2023-02-21T10:06:30.077Z,54976.00
2023-02-21T10:07:08.782Z,54112.00
2023-02-21T10:08:10.032Z,56992.00
2023-02-21T10:09:08.731Z,57376.00
2023-02-21T10:10:08.661Z,55936.00
2023-02-21T10:11:08.622Z,57120.00
2023-02-21T10:12:09.063Z,58560.00
2023-02-21T10:13:08.556Z,58624.00
2023-02-21T10:14:08.654Z,55712.00
2023-02-21T10:15:08.568Z,59168.00
2023-02-21T10:16:08.563Z,61856.00
2023-02-21T10:17:08.402Z,59584.00
2023-02-21T10:18:08.662Z,58944.00
2023-02-21T10:19:08.721Z,60352.00
2023-02-21T10:20:08.469Z,60960.00
2023-02-21T10:21:08.267Z,57152.00
2023-02-21T10:22:08.490Z,57952.00
2023-02-21T10:23:08.194Z,56608.00
2023-02-21T10:24:08.295Z,58816.00
2023-02-21T10:25:08.140Z,56128.00
2023-02-21T10:26:08.323Z,60640.00
2023-02-21T10:27:08.050Z,63744.00
2023-02-21T10:28:08.324Z,59648.00
2023-02-21T10:29:08.185Z,65440.00
2023-02-21T10:30:08.192Z,58176.00
2023-02-21T10:31:08.016Z,59904.00
2023-02-21T10:32:08.160Z,66080.00
2023-02-21T10:33:08.213Z,55200.00
2023-02-21T10:34:07.831Z,59872.00
2023-02-21T10:35:07.966Z,69536.00
2023-02-21T10:36:07.746Z,63200.00
2023-02-21T10:37:07.986Z,61504.00
2023-02-21T10:38:07.684Z,61824.00
2023-02-21T10:39:07.650Z,58304.00
2023-02-21T10:40:09.153Z,59008.00
2023-02-21T10:41:08.008Z,57984.00
2023-02-21T10:42:07.552Z,62912.00
2023-02-21T10:43:07.816Z,65376.00
2023-02-21T10:44:07.493Z,62176.00
2023-02-21T10:45:07.443Z,65376.00
2023-02-21T10:46:08.688Z,65920.00
2023-02-21T10:47:07.394Z,65984.00
2023-02-21T10:48:07.649Z,65184.00
2023-02-21T10:49:07.306Z,64160.00
2023-02-21T10:50:07.484Z,63136.00
2023-02-21T10:51:07.238Z,68736.00
2023-02-21T10:52:07.372Z,74816.00
2023-02-21T10:53:08.479Z,68320.00
2023-02-21T10:54:07.389Z,70496.00
2023-02-21T10:55:07.119Z,72384.00
2023-02-21T10:56:07.072Z,69472.00
2023-02-21T10:57:07.037Z,75776.00
2023-02-21T10:58:07.325Z,66880.00
2023-02-21T10:59:07.018Z,63136.00
2023-02-21T11:00:07.124Z,76672.00
2023-02-21T11:01:06.910Z,62208.00
2023-02-21T11:02:06.910Z,64832.00
2023-02-21T11:03:07.000Z,70176.00
2023-02-21T11:04:06.961Z,68192.00
2023-02-21T11:05:06.781Z,70688.00
2023-02-21T11:06:06.971Z,66112.00
2023-02-21T11:07:06.710Z,66592.00
2023-02-21T11:08:06.688Z,72384.00
2023-02-21T11:09:07.801Z,64640.00
2023-02-21T11:10:06.617Z,65088.00
2023-02-21T11:11:06.805Z,70912.00
2023-02-21T11:12:06.560Z,63584.00
2023-02-21T11:13:06.709Z,62496.00
2023-02-21T11:14:17.323Z,69184.00
2023-02-21T11:15:19.738Z,69312.00
2023-02-21T11:16:06.443Z,61632.00
2023-02-21T11:17:06.534Z,68832.00
2023-02-21T11:18:06.365Z,73824.00
2023-02-21T11:19:06.390Z,68352.00
2023-02-21T11:20:06.300Z,68832.00
2023-02-21T11:21:06.362Z,75040.00
2023-02-21T11:22:06.235Z,74144.00
2023-02-21T11:23:07.399Z,70560.00
2023-02-21T11:24:06.176Z,66432.00
2023-02-21T11:25:06.399Z,66880.00
2023-02-21T11:26:06.138Z,71840.00
2023-02-21T11:27:06.196Z,69152.00
2023-02-21T11:28:06.065Z,68704.00
2023-02-21T11:29:06.319Z,67456.00
2023-02-21T11:30:06.034Z,70624.00
2023-02-21T11:31:06.178Z,71680.00
2023-02-21T11:32:05.984Z,69152.00
2023-02-21T11:33:06.058Z,67680.00
2023-02-21T11:34:05.858Z,67296.00
2023-02-21T11:35:06.053Z,65408.00
2023-02-21T11:36:05.802Z,68320.00
2023-02-21T11:37:05.926Z,70048.00
2023-02-21T11:38:05.768Z,71872.00
2023-02-21T11:39:05.877Z,70080.00
2023-02-21T11:40:05.684Z,67520.00
2023-02-21T11:41:05.693Z,70976.00
2023-02-21T11:42:05.719Z,73344.00
2023-02-21T11:43:05.586Z,71072.00
2023-02-21T11:44:05.561Z,69696.00
2023-02-21T11:45:05.617Z,71456.00
2023-02-21T11:46:05.561Z,75104.00
2023-02-21T11:47:05.628Z,74208.00
2023-02-21T11:48:05.493Z,70560.00
2023-02-21T11:49:05.402Z,67456.00
2023-02-21T11:50:05.569Z,70144.00
2023-02-21T11:51:05.337Z,73248.00
2023-02-21T11:52:05.368Z,72128.00
2023-02-21T11:53:05.287Z,69632.00
2023-02-21T11:54:05.433Z,71680.00
2023-02-21T11:55:05.221Z,73248.00
2023-02-21T11:56:05.293Z,74848.00
2023-02-21T11:57:05.154Z,76608.00
2023-02-21T11:58:05.299Z,72448.00
2023-02-21T11:59:05.098Z,74656.00
2023-02-21T12:00:05.315Z,80224.00
2023-02-21T12:01:05.045Z,73984.00
2023-02-21T12:02:06.146Z,77216.00
2023-02-21T12:03:04.974Z,82528.00
2023-02-21T12:04:05.143Z,76192.00
2023-02-21T12:05:04.933Z,78400.00
2023-02-21T12:06:04.987Z,83360.00
2023-02-21T12:07:04.854Z,78112.00
2023-02-21T12:08:05.990Z,71456.00
2023-02-21T12:09:04.792Z,76096.00
2023-02-21T12:10:05.388Z,79840.00
2023-02-21T12:11:04.734Z,79232.00
2023-02-21T12:12:04.705Z,79904.00
2023-02-21T12:13:04.796Z,78784.00
2023-02-21T12:14:04.640Z,79808.00
2023-02-21T12:15:04.821Z,86368.00
2023-02-21T12:16:04.754Z,84736.00
2023-02-21T12:17:04.615Z,81152.00
2023-02-21T12:18:04.627Z,79712.00
2023-02-21T12:19:04.496Z,80928.00
2023-02-21T12:20:04.636Z,80320.00
2023-02-21T12:21:04.435Z,76928.00
2023-02-21T12:22:04.650Z,80000.00
2023-02-21T12:23:04.372Z,77984.00
2023-02-21T12:24:04.342Z,70144.00
2023-02-21T12:25:04.381Z,74368.00
2023-02-21T12:26:04.285Z,74656.00
2023-02-21T12:27:04.500Z,72256.00
2023-02-21T12:28:04.343Z,75392.00
2023-02-21T12:29:04.315Z,74880.00
2023-02-21T12:30:04.378Z,75712.00
2023-02-21T12:31:04.146Z,77696.00
2023-02-21T12:32:04.155Z,72672.00
2023-02-21T12:33:04.080Z,71872.00
2023-02-21T12:34:04.066Z,73056.00
2023-02-21T12:35:04.153Z,71232.00
2023-02-21T12:36:04.165Z,71680.00
2023-02-21T12:37:03.971Z,74816.00
2023-02-21T12:38:04.202Z,77632.00
2023-02-21T12:39:03.902Z,76000.00